Tamanrasset, Algeria
Current Conditions -  °F | °C
As of 4:00 PM on Thursday 30 Oct 2014 (Local Time) from DAAT Reporting Station
Clear Clear  
Wind Chill: 84°   Ceiling: Unl
Heat Index: 84°   Visibility: 6mi
Dew Point: 36°   Wind: 14mph
Humidity: 18%   Direction: 190°S
Pressure: 30.09"   Gusts: NA
Location:  22.78°N, 5.52°E
Report Text: DAAT 301500Z 19012KT 160V220 CAVOK 29/02 Q1019
Loading
Personal Weather Stations






























Interactive Weather Map New forecast layout! Learn more

10-Day Weather Forecast

Advertisements
Track Severe Weather on mobile